createdAt,value
2022-08-24T00:00:20.803Z,1.60
2022-08-24T00:03:23.123Z,1.30
2022-08-24T00:06:25.949Z,1.58
2022-08-24T00:09:28.226Z,1.52
2022-08-24T00:12:35.653Z,1.60
2022-08-24T00:15:37.425Z,1.40
2022-08-24T00:18:39.602Z,1.27
2022-08-24T00:21:41.343Z,1.40
2022-08-24T00:24:46.744Z,1.30
2022-08-24T00:27:51.484Z,1.52
2022-08-24T00:30:53.505Z,1.60
2022-08-24T00:33:56.320Z,1.60
2022-08-24T00:36:57.940Z,1.80
2022-08-24T00:39:59.852Z,1.55
2022-08-24T00:43:05.092Z,1.55
2022-08-24T00:46:16.985Z,1.60
2022-08-24T00:49:25.162Z,1.40
2022-08-24T00:52:32.512Z,1.58
2022-08-24T00:55:38.035Z,1.70
2022-08-24T00:58:48.136Z,1.70
2022-08-24T01:02:06.276Z,1.73
2022-08-24T01:05:17.756Z,1.33
2022-08-24T01:08:20.357Z,1.67
2022-08-24T01:11:26.289Z,1.75
2022-08-24T01:14:28.380Z,1.70
2022-08-24T01:17:49.296Z,1.88
2022-08-24T01:21:03.408Z,1.80
2022-08-24T01:24:10.630Z,1.60
2022-08-24T01:27:14.971Z,1.73
2022-08-24T01:30:18.496Z,1.67
2022-08-24T01:33:26.173Z,1.60
2022-08-24T01:36:41.006Z,1.92
2022-08-24T01:39:45.172Z,1.48
2022-08-24T01:42:51.658Z,1.80
2022-08-24T01:45:54.035Z,1.80
2022-08-24T01:48:57.995Z,1.58
2022-08-24T01:52:00.176Z,1.60
2022-08-24T01:55:02.144Z,1.85
2022-08-24T01:58:06.094Z,1.63
2022-08-24T02:01:07.672Z,1.73
2022-08-24T02:04:10.254Z,1.85
2022-08-24T02:07:13.224Z,1.83
2022-08-24T02:10:15.782Z,2.00
2022-08-24T02:13:17.765Z,2.00
2022-08-24T02:16:19.714Z,1.90
2022-08-24T02:19:22.256Z,2.00
2022-08-24T02:22:23.782Z,2.00
2022-08-24T02:25:27.517Z,2.08
2022-08-24T02:28:29.175Z,2.10
2022-08-24T02:31:30.885Z,1.88
2022-08-24T02:34:32.684Z,2.20
2022-08-24T02:37:34.616Z,1.95
2022-08-24T02:40:43.521Z,1.88
2022-08-24T02:43:45.080Z,2.00
2022-08-24T02:46:46.722Z,1.98
2022-08-24T02:49:48.730Z,1.85
2022-08-24T02:52:50.427Z,2.13
2022-08-24T02:55:52.475Z,2.22
2022-08-24T02:58:54.497Z,2.20
2022-08-24T03:01:56.503Z,2.20
2022-08-24T03:04:58.779Z,2.33
2022-08-24T03:08:00.849Z,2.30
2022-08-24T03:11:03.940Z,2.00
2022-08-24T03:14:05.672Z,2.10
2022-08-24T03:17:07.626Z,2.28
2022-08-24T03:20:13.704Z,2.40
2022-08-24T03:23:16.052Z,2.30
2022-08-24T03:26:19.473Z,2.60
2022-08-24T03:29:21.764Z,2.25
2022-08-24T03:32:25.965Z,2.58
2022-08-24T03:35:28.522Z,2.50
2022-08-24T03:38:30.601Z,2.03
2022-08-24T03:41:32.265Z,2.38
2022-08-24T03:44:38.697Z,2.20
2022-08-24T03:47:41.596Z,2.13
2022-08-24T03:50:46.172Z,2.30
2022-08-24T03:53:49.660Z,2.40
2022-08-24T03:56:51.294Z,2.40
2022-08-24T03:59:52.840Z,2.30
2022-08-24T04:02:54.393Z,2.30
2022-08-24T04:05:58.372Z,2.75
2022-08-24T04:09:04.505Z,2.47
2022-08-24T04:12:10.820Z,2.20
2022-08-24T04:15:12.540Z,2.40
2022-08-24T04:18:15.021Z,2.70
2022-08-24T04:21:22.411Z,2.30
2022-08-24T04:24:25.679Z,2.33
2022-08-24T04:27:27.556Z,2.53
2022-08-24T04:30:29.127Z,2.70
2022-08-24T04:33:41.809Z,2.42
2022-08-24T04:36:45.151Z,2.25
2022-08-24T04:39:47.468Z,2.70
2022-08-24T04:42:59.100Z,2.28
2022-08-24T04:46:06.657Z,2.40
2022-08-24T04:49:08.705Z,2.40
2022-08-24T04:52:11.138Z,2.50
2022-08-24T04:55:13.903Z,2.65
2022-08-24T04:58:16.865Z,2.47
2022-08-24T05:01:21.885Z,2.30
2022-08-24T05:04:24.344Z,2.67
2022-08-24T05:07:26.663Z,2.50
2022-08-24T05:10:33.527Z,2.40
2022-08-24T05:13:36.493Z,2.40
2022-08-24T05:16:38.189Z,2.63
2022-08-24T05:19:39.844Z,2.60
2022-08-24T05:22:41.450Z,2.70
2022-08-24T05:25:43.058Z,2.75
2022-08-24T05:28:46.134Z,2.50
2022-08-24T05:31:48.428Z,2.22
2022-08-24T05:34:51.144Z,2.50
2022-08-24T05:37:52.763Z,2.50
2022-08-24T05:40:54.892Z,2.50
2022-08-24T05:43:59.187Z,2.50
2022-08-24T05:47:01.298Z,2.50
2022-08-24T05:50:04.548Z,2.50
2022-08-24T05:53:06.223Z,2.80
2022-08-24T05:56:11.471Z,3.15
2022-08-24T05:59:14.512Z,2.67
2022-08-24T06:02:17.946Z,2.67
2022-08-24T06:05:20.251Z,2.90
2022-08-24T06:08:22.064Z,2.42
2022-08-24T06:11:33.766Z,2.47
2022-08-24T06:14:36.761Z,2.53
2022-08-24T06:17:39.964Z,2.47
2022-08-24T06:20:42.462Z,2.53
2022-08-24T06:23:44.409Z,2.42
2022-08-24T06:27:04.974Z,3.10
2022-08-24T06:30:12.008Z,2.70
2022-08-24T06:33:19.997Z,2.65
2022-08-24T06:36:25.667Z,2.60
2022-08-24T06:39:27.933Z,2.60
2022-08-24T06:42:31.726Z,2.80
2022-08-24T06:45:34.461Z,3.08
2022-08-24T06:48:36.347Z,2.72
2022-08-24T06:51:38.020Z,2.67
2022-08-24T06:54:40.896Z,2.50
2022-08-24T06:57:42.874Z,2.60
2022-08-24T07:00:44.847Z,2.70
2022-08-24T07:03:47.674Z,2.72
2022-08-24T07:06:56.574Z,2.38
2022-08-24T07:10:00.180Z,2.72
2022-08-24T07:13:01.772Z,2.60
2022-08-24T07:16:04.629Z,2.40
2022-08-24T07:19:08.145Z,2.72
2022-08-24T07:22:09.739Z,2.30
2022-08-24T07:25:13.382Z,2.40
2022-08-24T07:28:16.235Z,2.80
2022-08-24T07:31:19.220Z,2.67
2022-08-24T07:34:28.143Z,2.50
2022-08-24T07:37:40.159Z,2.58
2022-08-24T07:41:09.462Z,2.30
2022-08-24T07:44:11.169Z,2.28
2022-08-24T07:47:36.967Z,2.58
2022-08-24T07:50:37.320Z,2.50
2022-08-24T07:53:52.988Z,2.90
2022-08-24T07:57:02.112Z,2.50
2022-08-24T08:00:09.140Z,2.50
2022-08-24T08:03:16.213Z,2.85
2022-08-24T08:06:19.824Z,2.80
2022-08-24T08:09:24.146Z,2.90
2022-08-24T08:12:25.773Z,2.50
2022-08-24T08:15:32.113Z,2.72
2022-08-24T08:18:39.228Z,2.70
2022-08-24T08:22:06.401Z,2.20
2022-08-24T08:25:12.242Z,2.58
2022-08-24T08:28:25.523Z,2.85
2022-08-24T08:31:28.501Z,2.80
2022-08-24T08:34:31.344Z,2.97
2022-08-24T08:37:33.249Z,2.80
2022-08-24T08:41:00.205Z,2.60
2022-08-24T08:44:07.504Z,2.70
2022-08-24T08:47:43.781Z,2.63
2022-08-24T08:51:11.798Z,2.70
2022-08-24T08:54:26.969Z,2.70
2022-08-24T08:57:41.145Z,2.60
2022-08-24T09:01:01.729Z,2.85
2022-08-24T09:04:38.934Z,3.10
2022-08-24T09:08:06.814Z,2.90
2022-08-24T09:11:32.416Z,2.70
2022-08-24T09:14:59.131Z,2.58
2022-08-24T09:18:09.969Z,2.63
2022-08-24T09:21:36.584Z,2.95
2022-08-24T09:24:53.875Z,2.88
2022-08-24T09:28:43.790Z,2.83
2022-08-24T09:32:00.812Z,2.75
2022-08-24T09:35:11.044Z,2.40
2022-08-24T09:38:40.687Z,2.30
2022-08-24T09:42:19.282Z,2.93
2022-08-24T09:45:47.759Z,2.58
2022-08-24T09:52:44.331Z,2.55
2022-08-24T09:56:07.520Z,3.00
2022-08-24T09:59:27.345Z,2.60
2022-08-24T10:02:56.232Z,2.85
2022-08-24T10:06:07.159Z,2.40
2022-08-24T10:09:30.668Z,2.35
2022-08-24T10:13:06.092Z,2.40
2022-08-24T10:16:15.117Z,2.30
2022-08-24T10:19:45.203Z,2.58
2022-08-24T10:23:08.538Z,2.30
2022-08-24T10:26:26.074Z,2.55
2022-08-24T10:29:49.508Z,2.38
2022-08-24T10:33:21.335Z,2.50
2022-08-24T10:36:41.749Z,2.30
2022-08-24T10:40:11.760Z,2.17
2022-08-24T10:43:34.456Z,2.55
2022-08-24T10:46:43.480Z,2.30
2022-08-24T10:50:15.077Z,2.65
2022-08-24T10:53:22.633Z,2.78
2022-08-24T10:56:53.893Z,2.28
2022-08-24T11:00:01.170Z,2.65
2022-08-24T11:03:14.024Z,2.40
2022-08-24T11:06:17.457Z,2.40
2022-08-24T11:09:20.046Z,2.70
2022-08-24T11:12:27.530Z,2.60
2022-08-24T11:15:29.632Z,2.70
2022-08-24T11:18:50.178Z,2.65
2022-08-24T11:21:54.081Z,2.70
2022-08-24T11:25:00.015Z,2.20
2022-08-24T11:28:29.605Z,2.60
2022-08-24T11:31:41.611Z,2.70
2022-08-24T11:34:46.751Z,2.28
2022-08-24T11:37:51.520Z,2.63
2022-08-24T11:41:16.269Z,2.60
2022-08-24T11:44:36.760Z,2.60
2022-08-24T11:48:12.329Z,2.63
2022-08-24T11:51:41.221Z,2.60
2022-08-24T11:54:45.502Z,2.38
2022-08-24T11:57:55.821Z,3.00
2022-08-24T12:01:12.585Z,2.55
2022-08-24T12:04:30.439Z,2.58
2022-08-24T12:07:42.678Z,2.47
2022-08-24T12:11:33.110Z,2.63
2022-08-24T12:14:52.215Z,3.05
2022-08-24T12:18:05.067Z,2.78
2022-08-24T12:21:12.558Z,2.70
2022-08-24T12:24:31.396Z,2.30
2022-08-24T12:27:37.227Z,2.80
2022-08-24T12:30:38.853Z,2.78
2022-08-24T12:33:46.864Z,2.35
2022-08-24T12:37:00.935Z,2.85
2022-08-24T12:40:08.696Z,2.88
2022-08-24T12:43:18.689Z,2.60
2022-08-24T12:46:25.445Z,2.60
2022-08-24T12:49:51.020Z,2.38
2022-08-24T12:53:12.276Z,2.63
2022-08-24T12:56:35.288Z,2.53
2022-08-24T12:59:39.070Z,2.75
2022-08-24T13:02:47.706Z,2.45
2022-08-24T13:05:56.245Z,2.50
2022-08-24T13:09:13.995Z,2.70
2022-08-24T13:12:44.528Z,2.53
2022-08-24T13:15:46.104Z,2.20
2022-08-24T13:19:16.968Z,2.78
2022-08-24T13:22:37.705Z,2.50
2022-08-24T13:25:48.162Z,2.40
2022-08-24T13:28:56.788Z,2.85
2022-08-24T13:32:00.108Z,2.47
2022-08-24T13:35:55.857Z,2.40
2022-08-24T13:39:00.289Z,2.63
2022-08-24T13:42:02.096Z,2.38
2022-08-24T13:45:39.153Z,2.42
2022-08-24T13:48:58.535Z,2.40
2022-08-24T13:52:14.944Z,2.60
2022-08-24T13:55:32.828Z,3.83
2022-08-24T13:58:45.157Z,3.40
2022-08-24T14:02:14.605Z,3.15
2022-08-24T14:05:35.854Z,2.70
2022-08-24T14:09:01.164Z,3.05
2022-08-24T14:12:10.713Z,3.20
2022-08-24T14:15:15.840Z,2.88
2022-08-24T14:18:29.026Z,3.38
2022-08-24T14:21:44.937Z,3.35
2022-08-24T14:25:02.765Z,2.72
2022-08-24T14:28:04.510Z,3.40
2022-08-24T14:31:29.312Z,2.88
2022-08-24T14:34:49.312Z,3.10
2022-08-24T14:38:01.237Z,2.95
2022-08-24T14:41:21.127Z,3.20
2022-08-24T14:44:32.940Z,3.00
2022-08-24T14:47:41.557Z,3.28
2022-08-24T14:50:57.505Z,2.97
2022-08-24T14:54:20.838Z,2.97
2022-08-24T14:57:36.603Z,3.00
2022-08-24T15:01:25.006Z,3.03
2022-08-24T15:04:44.944Z,3.08
2022-08-24T15:08:01.620Z,2.63
2022-08-24T15:11:11.865Z,2.60
2022-08-24T15:14:30.084Z,2.88
2022-08-24T15:17:45.780Z,2.80
2022-08-24T15:20:59.957Z,2.90
2022-08-24T15:27:53.571Z,2.65
2022-08-24T15:31:07.891Z,2.65
2022-08-24T15:34:10.337Z,2.92
2022-08-24T15:37:17.404Z,2.90
2022-08-24T15:40:31.661Z,2.92
2022-08-24T15:43:42.831Z,3.17
2022-08-24T15:46:49.840Z,3.03
2022-08-24T15:50:07.459Z,2.78
2022-08-24T15:53:40.412Z,2.83
2022-08-24T15:56:48.075Z,2.72
2022-08-24T15:59:52.725Z,2.38
2022-08-24T16:02:54.314Z,2.72
2022-08-24T16:06:15.747Z,2.50
2022-08-24T16:09:27.722Z,2.65
2022-08-24T16:12:32.444Z,2.83
2022-08-24T16:15:34.606Z,2.80
2022-08-24T16:18:51.902Z,3.15
2022-08-24T16:22:05.567Z,2.80
2022-08-24T16:25:26.854Z,2.63
2022-08-24T16:28:36.298Z,2.80
2022-08-24T16:31:40.771Z,3.17
2022-08-24T16:34:49.944Z,2.70
2022-08-24T16:37:52.773Z,2.90
2022-08-24T16:40:56.961Z,2.60
2022-08-24T16:43:59.770Z,3.05
2022-08-24T16:47:02.259Z,2.72
2022-08-24T16:50:05.663Z,3.13
2022-08-24T16:53:07.193Z,2.60
2022-08-24T16:56:08.993Z,3.00
2022-08-24T16:59:17.597Z,2.90
2022-08-24T17:02:21.864Z,3.00
2022-08-24T17:05:23.842Z,2.88
2022-08-24T17:08:27.322Z,2.90
2022-08-24T17:11:29.142Z,2.90
2022-08-24T17:14:30.878Z,3.00
2022-08-24T17:17:33.274Z,3.00
2022-08-24T17:20:35.597Z,2.70
2022-08-24T17:23:38.413Z,2.67
2022-08-24T17:26:44.967Z,2.70
2022-08-24T17:29:50.857Z,2.55
2022-08-24T17:32:53.540Z,2.70
2022-08-24T17:35:55.332Z,2.50
2022-08-24T17:38:57.423Z,2.83
2022-08-24T17:42:00.199Z,2.72
2022-08-24T17:45:01.914Z,2.53
2022-08-24T17:48:04.072Z,2.50
2022-08-24T17:51:05.820Z,2.70
2022-08-24T17:54:07.406Z,2.63
2022-08-24T17:57:11.983Z,2.50
2022-08-24T18:00:13.948Z,2.53
2022-08-24T18:03:16.680Z,2.35
2022-08-24T18:06:20.696Z,2.53
2022-08-24T18:09:38.174Z,2.55
2022-08-24T18:12:39.721Z,2.60
2022-08-24T18:15:41.335Z,2.33
2022-08-24T18:18:43.172Z,2.55
2022-08-24T18:21:45.142Z,2.90
2022-08-24T18:24:46.666Z,2.55
2022-08-24T18:27:51.614Z,2.55
2022-08-24T18:30:54.003Z,2.40
2022-08-24T18:38:37.227Z,2.40
2022-08-24T18:41:41.790Z,2.60
2022-08-24T18:44:43.574Z,2.67
2022-08-24T18:47:45.408Z,2.30
2022-08-24T18:50:56.110Z,2.60
2022-08-24T18:54:02.215Z,2.42
2022-08-24T18:57:06.891Z,2.55
2022-08-24T19:00:10.380Z,2.50
2022-08-24T19:03:17.004Z,2.30
2022-08-24T19:06:18.554Z,2.40
2022-08-24T19:09:20.323Z,2.67
2022-08-24T19:12:22.141Z,2.42
2022-08-24T19:15:37.813Z,2.20
2022-08-24T19:18:41.640Z,2.40
2022-08-24T19:21:43.250Z,2.60
2022-08-24T19:24:45.952Z,2.00
2022-08-24T19:27:53.100Z,2.05
2022-08-24T19:30:57.307Z,2.33
2022-08-24T19:34:03.383Z,2.10
2022-08-24T19:37:05.280Z,2.10
2022-08-24T19:40:07.824Z,2.40
2022-08-24T19:43:09.653Z,2.50
2022-08-24T19:46:11.277Z,2.30
2022-08-24T19:49:13.169Z,2.30
2022-08-24T19:52:14.891Z,2.20
2022-08-24T19:55:17.303Z,2.30
2022-08-24T19:58:38.051Z,2.28
2022-08-24T20:01:39.662Z,2.10
2022-08-24T20:04:41.240Z,2.10
2022-08-24T20:07:44.597Z,2.20
2022-08-24T20:10:46.294Z,1.83
2022-08-24T20:13:50.279Z,2.15
2022-08-24T20:16:52.079Z,2.22
2022-08-24T20:19:53.731Z,2.17
2022-08-24T20:22:55.755Z,2.45
2022-08-24T20:25:59.626Z,2.10
2022-08-24T20:29:01.183Z,2.40
2022-08-24T20:32:05.139Z,2.38
2022-08-24T20:35:07.106Z,2.33
2022-08-24T20:38:09.065Z,2.20
2022-08-24T20:41:11.257Z,1.92
2022-08-24T20:44:13.130Z,2.10
2022-08-24T20:47:15.039Z,2.30
2022-08-24T20:50:23.514Z,2.00
2022-08-24T20:53:26.683Z,2.20
2022-08-24T20:56:32.408Z,2.00
2022-08-24T20:59:35.425Z,2.25
2022-08-24T21:02:37.162Z,2.13
2022-08-24T21:05:39.185Z,2.00
2022-08-24T21:08:42.480Z,1.90
2022-08-24T21:11:46.089Z,2.17
2022-08-24T21:14:47.645Z,2.13
2022-08-24T21:17:52.977Z,2.13
2022-08-24T21:21:03.156Z,2.17
2022-08-24T21:24:07.271Z,2.30
2022-08-24T21:27:10.180Z,2.35
2022-08-24T21:30:17.139Z,2.00
2022-08-24T21:33:37.309Z,2.20
2022-08-24T21:36:39.404Z,2.08
2022-08-24T21:39:41.582Z,2.30
2022-08-24T21:42:43.133Z,2.10
2022-08-24T21:45:44.894Z,2.25
2022-08-24T21:48:46.775Z,2.40
2022-08-24T21:51:48.358Z,2.30
2022-08-24T21:54:49.960Z,2.33
2022-08-24T21:57:51.622Z,2.20
2022-08-24T22:00:53.388Z,2.10
2022-08-24T22:04:01.557Z,2.40
2022-08-24T22:07:03.581Z,2.28
2022-08-24T22:10:08.462Z,2.20
2022-08-24T22:13:10.364Z,2.60
2022-08-24T22:16:13.316Z,2.58
2022-08-24T22:19:15.573Z,2.50
2022-08-24T22:22:17.590Z,2.33
2022-08-24T22:25:19.328Z,2.42
2022-08-24T22:28:21.565Z,2.47
2022-08-24T22:31:28.707Z,2.35
2022-08-24T22:34:30.982Z,2.50
2022-08-24T22:37:34.146Z,2.50
2022-08-24T22:40:36.537Z,2.60
2022-08-24T22:43:58.904Z,2.50
2022-08-24T22:47:03.687Z,2.45
2022-08-24T22:50:10.830Z,2.28
2022-08-24T22:53:12.839Z,2.58
2022-08-24T22:56:20.710Z,2.50
2022-08-24T22:59:25.532Z,2.33
2022-08-24T23:02:30.096Z,2.67
2022-08-24T23:05:31.670Z,2.38
2022-08-24T23:08:33.188Z,2.70
2022-08-24T23:11:35.304Z,2.70
2022-08-24T23:14:37.748Z,2.50
2022-08-24T23:17:39.293Z,2.60
2022-08-24T23:20:41.039Z,2.45
2022-08-24T23:23:42.790Z,2.65
2022-08-24T23:26:44.777Z,2.78
2022-08-24T23:29:47.359Z,2.78
2022-08-24T23:32:49.140Z,2.45
2022-08-24T23:35:50.686Z,2.72
2022-08-24T23:38:55.148Z,2.72
2022-08-24T23:41:57.151Z,2.70
2022-08-24T23:44:58.931Z,2.50
2022-08-24T23:48:02.123Z,2.40
2022-08-24T23:51:08.617Z,2.50
2022-08-24T23:54:11.251Z,2.78
2022-08-24T23:57:12.808Z,2.65
